createdAt,value
2023-02-26T00:00:21.338Z,0.87
2023-02-26T00:02:49.377Z,0.85
2023-02-26T00:05:17.820Z,0.85
2023-02-26T00:07:47.217Z,0.82
2023-02-26T00:10:16.317Z,0.80
2023-02-26T00:12:45.500Z,0.78
2023-02-26T00:15:15.603Z,0.76
2023-02-26T00:17:50.067Z,0.72
2023-02-26T00:20:18.622Z,0.69
2023-02-26T00:22:48.560Z,0.68
2023-02-26T00:25:16.365Z,0.66
2023-02-26T00:27:45.023Z,0.70
2023-02-26T00:30:13.838Z,0.70
2023-02-26T00:32:42.688Z,0.70
2023-02-26T00:35:14.853Z,0.67
2023-02-26T00:38:02.701Z,0.69
2023-02-26T00:40:43.145Z,0.68
2023-02-26T00:43:15.824Z,0.71
2023-02-26T00:45:48.736Z,0.78
2023-02-26T00:48:32.780Z,0.83
2023-02-26T00:51:01.303Z,0.87
2023-02-26T00:53:37.273Z,0.93
2023-02-26T00:56:07.946Z,0.93
2023-02-26T00:58:35.687Z,0.89
2023-02-26T01:01:03.423Z,0.86
2023-02-26T01:03:33.076Z,0.87
2023-02-26T01:06:04.325Z,0.86
2023-02-26T01:08:41.825Z,0.87
2023-02-26T01:11:10.642Z,0.87
2023-02-26T01:13:38.747Z,0.89
2023-02-26T01:16:13.130Z,0.86
2023-02-26T01:18:46.126Z,0.88
2023-02-26T01:21:19.665Z,0.77
2023-02-26T01:23:52.503Z,0.81
2023-02-26T01:26:25.055Z,0.77
2023-02-26T01:28:53.869Z,0.79
2023-02-26T01:31:35.871Z,0.82
2023-02-26T01:34:11.478Z,0.82
2023-02-26T01:36:45.063Z,0.84
2023-02-26T01:39:26.003Z,0.80
2023-02-26T01:41:57.034Z,0.80
2023-02-26T01:44:29.534Z,0.85
2023-02-26T01:47:11.280Z,0.87
2023-02-26T01:49:39.789Z,0.84
2023-02-26T01:52:08.955Z,0.82
2023-02-26T01:54:39.378Z,0.80
2023-02-26T01:57:10.197Z,0.87
2023-02-26T01:59:42.278Z,0.79
2023-02-26T02:02:12.594Z,0.80
2023-02-26T02:04:42.053Z,0.78
2023-02-26T02:07:09.842Z,0.77
2023-02-26T02:09:39.739Z,0.79
2023-02-26T02:12:26.247Z,0.78
2023-02-26T02:15:05.066Z,0.75
2023-02-26T02:17:42.355Z,0.71
2023-02-26T02:20:37.154Z,0.67
2023-02-26T02:23:18.646Z,0.64
2023-02-26T02:26:11.726Z,0.59
2023-02-26T02:28:54.053Z,0.61
2023-02-26T02:31:28.124Z,0.54
2023-02-26T02:34:01.645Z,0.49
2023-02-26T02:36:35.413Z,0.47
2023-02-26T02:39:05.640Z,0.40
2023-02-26T02:41:38.703Z,0.39
2023-02-26T02:44:11.672Z,0.38
2023-02-26T02:46:43.436Z,0.35
2023-02-26T02:49:16.971Z,0.27
2023-02-26T02:51:49.361Z,0.26
2023-02-26T02:54:21.685Z,0.26
2023-02-26T02:56:56.395Z,0.26
2023-02-26T02:59:29.549Z,0.24
2023-02-26T03:02:05.897Z,0.23
2023-02-26T03:04:33.725Z,0.22
2023-02-26T03:07:01.569Z,0.19
2023-02-26T03:09:29.370Z,0.19
2023-02-26T03:11:57.142Z,0.14
2023-02-26T03:14:25.261Z,0.05
2023-02-26T03:17:06.415Z,0.07
2023-02-26T03:19:42.072Z,0.10
2023-02-26T03:22:14.769Z,0.09
2023-02-26T03:24:51.099Z,0.05
2023-02-26T03:27:27.409Z,0.04
2023-02-26T03:29:59.785Z,0.01
2023-02-26T03:32:32.485Z,-0.01
2023-02-26T03:35:07.029Z,-0.01
2023-02-26T03:37:38.998Z,0.09
2023-02-26T03:40:13.081Z,0.06
2023-02-26T03:42:47.437Z,0.08
2023-02-26T03:45:20.074Z,0.05
2023-02-26T03:47:53.812Z,0.17
2023-02-26T03:50:23.072Z,0.12
2023-02-26T03:52:53.703Z,0.15
2023-02-26T03:55:27.095Z,0.17
2023-02-26T03:57:55.483Z,0.18
2023-02-26T04:00:25.246Z,0.15
2023-02-26T04:03:00.997Z,0.17
2023-02-26T04:05:36.192Z,0.14
2023-02-26T04:08:04.367Z,0.14
2023-02-26T04:10:37.593Z,0.14
2023-02-26T04:13:06.995Z,0.11
2023-02-26T04:15:34.799Z,0.11
2023-02-26T04:18:04.193Z,0.13
2023-02-26T04:20:31.997Z,0.11
2023-02-26T04:22:59.736Z,0.13
2023-02-26T04:25:29.147Z,0.12
2023-02-26T04:27:56.880Z,0.12
2023-02-26T04:30:24.581Z,0.08
2023-02-26T04:32:52.358Z,0.04
2023-02-26T04:35:21.523Z,0.01
2023-02-26T04:37:49.405Z,0.03
2023-02-26T04:40:17.501Z,0.04
2023-02-26T04:42:47.304Z,0.03
2023-02-26T04:45:15.355Z,0.01
2023-02-26T04:47:43.089Z,0.00
2023-02-26T04:50:12.226Z,-0.02
2023-02-26T04:52:41.366Z,-0.03
2023-02-26T04:55:09.918Z,-0.06
2023-02-26T04:57:37.634Z,-0.07
2023-02-26T05:00:09.621Z,-0.07
2023-02-26T05:02:37.427Z,-0.09
2023-02-26T05:05:05.654Z,-0.12
2023-02-26T05:07:33.381Z,-0.18
2023-02-26T05:10:02.510Z,-0.19
2023-02-26T05:12:30.254Z,-0.20
2023-02-26T05:14:57.970Z,-0.19
2023-02-26T05:17:25.858Z,-0.20
2023-02-26T05:19:53.732Z,-0.22
2023-02-26T05:22:21.656Z,-0.27
2023-02-26T05:24:49.795Z,-0.28
2023-02-26T05:27:19.060Z,-0.30
2023-02-26T05:29:46.838Z,-0.29
2023-02-26T05:32:14.718Z,-0.31
2023-02-26T05:34:42.543Z,-0.34
2023-02-26T05:37:10.306Z,-0.37
2023-02-26T05:39:38.155Z,-0.39
2023-02-26T05:42:06.096Z,-0.40
2023-02-26T05:44:35.500Z,-0.45
2023-02-26T05:47:03.315Z,-0.48
2023-02-26T05:49:31.160Z,-0.52
2023-02-26T05:51:58.927Z,-0.53
2023-02-26T05:54:26.683Z,-0.54
2023-02-26T05:56:54.452Z,-0.53
2023-02-26T05:59:25.335Z,-0.57
2023-02-26T06:01:54.493Z,-0.58
2023-02-26T06:04:22.264Z,-0.61
2023-02-26T06:06:50.008Z,-0.67
2023-02-26T06:09:17.879Z,-0.68
2023-02-26T06:11:45.659Z,-0.71
2023-02-26T06:14:13.529Z,-0.72
2023-02-26T06:16:41.507Z,-0.73
2023-02-26T06:19:10.708Z,-0.73
2023-02-26T06:21:38.536Z,-0.75
2023-02-26T06:24:06.920Z,-0.76
2023-02-26T06:26:34.791Z,-0.83
2023-02-26T06:29:02.607Z,-0.87
2023-02-26T06:31:30.489Z,-0.90
2023-02-26T06:33:58.279Z,-0.90
2023-02-26T06:36:27.736Z,-0.90
2023-02-26T06:38:55.624Z,-0.90
2023-02-26T06:41:23.402Z,-0.92
2023-02-26T06:43:51.145Z,-0.94
2023-02-26T06:46:18.930Z,-0.97
2023-02-26T06:48:46.708Z,-0.97
2023-02-26T06:51:14.462Z,-0.98
2023-02-26T06:53:43.644Z,-0.98
2023-02-26T06:56:11.361Z,-0.98
2023-02-26T06:58:39.112Z,-0.98
2023-02-26T07:01:06.865Z,-0.97
2023-02-26T07:03:34.668Z,-0.99
2023-02-26T07:06:23.693Z,-1.01
2023-02-26T07:08:51.669Z,-1.04
2023-02-26T07:11:19.481Z,-1.06
2023-02-26T07:13:47.260Z,-1.02
2023-02-26T07:16:15.018Z,-1.01
2023-02-26T07:18:42.815Z,-0.96
2023-02-26T07:21:11.883Z,-0.95
2023-02-26T07:23:39.704Z,-0.87
2023-02-26T07:26:09.067Z,-0.85
2023-02-26T07:28:37.183Z,-0.80
2023-02-26T07:31:05.378Z,-0.81
2023-02-26T07:33:35.068Z,-0.78
2023-02-26T07:36:02.932Z,-0.74
2023-02-26T07:38:30.831Z,-0.73
2023-02-26T07:40:58.973Z,-0.65
2023-02-26T07:43:28.121Z,-0.60
2023-02-26T07:45:55.954Z,-0.59
2023-02-26T07:48:23.957Z,-0.57
2023-02-26T07:50:53.607Z,-0.51
2023-02-26T07:53:21.973Z,-0.44
2023-02-26T07:55:49.756Z,-0.37
2023-02-26T07:58:17.715Z,-0.33
2023-02-26T08:00:46.913Z,-0.25
2023-02-26T08:03:15.450Z,-0.22
2023-02-26T08:05:43.514Z,-0.15
2023-02-26T08:08:11.720Z,-0.08
2023-02-26T08:10:42.471Z,-0.03
2023-02-26T08:13:10.413Z,0.02
2023-02-26T08:15:38.290Z,0.11
2023-02-26T08:18:07.552Z,0.18
2023-02-26T08:20:35.319Z,0.29
2023-02-26T08:23:03.212Z,0.40
2023-02-26T08:25:31.230Z,0.50
2023-02-26T08:27:59.031Z,0.58
2023-02-26T08:30:26.811Z,0.67
2023-02-26T08:32:54.564Z,0.76
2023-02-26T08:35:23.804Z,0.81
2023-02-26T08:37:52.852Z,0.90
2023-02-26T08:40:20.727Z,1.03
2023-02-26T08:42:48.485Z,1.08
2023-02-26T08:45:16.366Z,1.19
2023-02-26T08:47:56.235Z,1.34
2023-02-26T08:50:27.250Z,1.48
2023-02-26T08:52:55.083Z,1.54
2023-02-26T08:55:23.224Z,1.60
2023-02-26T08:57:50.953Z,1.64
2023-02-26T09:00:19.513Z,1.69
2023-02-26T09:02:47.675Z,1.82
2023-02-26T09:05:16.349Z,1.91
2023-02-26T09:07:45.819Z,1.90
2023-02-26T09:10:16.964Z,1.88
2023-02-26T09:12:45.193Z,1.88
2023-02-26T09:15:14.364Z,1.99
2023-02-26T09:17:42.490Z,2.04
2023-02-26T09:20:12.285Z,2.05
2023-02-26T09:22:40.041Z,2.22
2023-02-26T09:25:10.086Z,2.20
2023-02-26T09:27:38.009Z,2.31
2023-02-26T09:30:06.990Z,2.34
2023-02-26T09:32:34.865Z,2.38
2023-02-26T09:35:02.834Z,2.40
2023-02-26T09:37:30.613Z,2.51
2023-02-26T09:39:58.405Z,2.62
2023-02-26T09:42:40.396Z,2.58
2023-02-26T09:45:15.549Z,2.51
2023-02-26T09:47:51.046Z,2.46
2023-02-26T09:50:22.789Z,2.55
2023-02-26T09:52:56.806Z,2.66
2023-02-26T09:55:31.032Z,2.76
2023-02-26T09:58:03.298Z,2.91
2023-02-26T10:00:35.034Z,2.90
2023-02-26T10:03:17.449Z,2.98
2023-02-26T10:06:07.375Z,2.94
2023-02-26T10:08:42.596Z,2.94
2023-02-26T10:11:18.692Z,2.93
2023-02-26T10:13:57.642Z,3.04
2023-02-26T10:16:29.876Z,3.16
2023-02-26T10:19:05.037Z,3.20
2023-02-26T10:21:40.491Z,3.27
2023-02-26T10:24:14.509Z,3.36
2023-02-26T10:26:46.650Z,3.26
2023-02-26T10:29:23.425Z,3.43
2023-02-26T10:32:02.218Z,3.62
2023-02-26T10:34:35.881Z,3.78
2023-02-26T10:37:14.699Z,3.75
2023-02-26T10:39:47.321Z,3.78
2023-02-26T10:42:19.666Z,3.88
2023-02-26T10:45:01.166Z,3.84
2023-02-26T10:47:38.699Z,3.80
2023-02-26T10:50:10.244Z,3.76
2023-02-26T10:52:38.510Z,3.97
2023-02-26T10:55:40.661Z,4.15
2023-02-26T10:58:14.421Z,4.09
2023-02-26T11:00:45.331Z,4.14
2023-02-26T11:03:18.270Z,4.33
2023-02-26T11:05:46.999Z,4.30
2023-02-26T11:08:19.152Z,4.18
2023-02-26T11:10:54.189Z,4.06
2023-02-26T11:13:23.335Z,3.91
2023-02-26T11:15:54.475Z,3.79
2023-02-26T11:18:27.410Z,3.73
2023-02-26T11:20:57.934Z,3.72
2023-02-26T11:23:28.871Z,3.90
2023-02-26T11:26:02.661Z,3.87
2023-02-26T11:28:32.318Z,3.83
2023-02-26T11:31:10.377Z,3.98
2023-02-26T11:33:40.235Z,4.25
2023-02-26T11:36:12.353Z,4.54
2023-02-26T11:38:40.573Z,4.68
2023-02-26T11:41:09.068Z,4.76
2023-02-26T11:43:44.131Z,4.74
2023-02-26T11:46:14.855Z,4.71
2023-02-26T11:48:46.340Z,4.67
2023-02-26T11:51:16.883Z,4.73
2023-02-26T11:53:50.102Z,4.62
2023-02-26T11:56:26.175Z,4.60
2023-02-26T11:58:56.138Z,4.52
2023-02-26T12:01:28.867Z,4.57
2023-02-26T12:04:00.294Z,4.72
2023-02-26T12:06:28.214Z,4.85
2023-02-26T12:08:56.584Z,5.01
2023-02-26T12:11:56.383Z,5.15
2023-02-26T12:14:50.071Z,5.21
2023-02-26T12:17:36.118Z,5.05
2023-02-26T12:20:17.296Z,4.91
2023-02-26T12:22:55.054Z,4.97
2023-02-26T12:26:01.154Z,4.91
2023-02-26T12:28:51.939Z,5.07
2023-02-26T12:31:45.622Z,5.06
2023-02-26T12:34:38.115Z,4.88
2023-02-26T12:37:25.790Z,5.00
2023-02-26T12:40:07.090Z,5.04
2023-02-26T12:42:46.246Z,5.14
2023-02-26T12:45:32.954Z,5.26
2023-02-26T12:48:23.325Z,5.14
2023-02-26T12:51:01.182Z,5.15
2023-02-26T12:53:43.222Z,5.17
2023-02-26T12:56:32.889Z,5.22
2023-02-26T12:59:18.764Z,5.28
2023-02-26T13:02:01.506Z,5.42
2023-02-26T13:04:55.360Z,5.44
2023-02-26T13:07:40.339Z,5.45
2023-02-26T13:10:16.628Z,5.57
2023-02-26T13:12:52.318Z,5.59
2023-02-26T13:15:47.212Z,5.62
2023-02-26T13:18:23.465Z,5.57
2023-02-26T13:20:58.403Z,5.61
2023-02-26T13:23:35.165Z,5.48
2023-02-26T13:26:06.070Z,5.51
2023-02-26T13:28:42.015Z,5.42
2023-02-26T13:31:15.027Z,5.41
2023-02-26T13:33:44.579Z,5.52
2023-02-26T13:36:12.879Z,5.60
2023-02-26T13:38:54.567Z,5.52
2023-02-26T13:41:33.341Z,5.54
2023-02-26T13:44:18.764Z,5.60
2023-02-26T13:46:59.319Z,5.70
2023-02-26T13:49:32.336Z,5.55
2023-02-26T13:52:00.339Z,5.50
2023-02-26T13:54:44.202Z,5.28
2023-02-26T13:57:26.840Z,5.25
2023-02-26T14:00:02.160Z,5.30
2023-02-26T14:02:51.742Z,5.43
2023-02-26T14:05:51.489Z,5.51
2023-02-26T14:08:48.421Z,5.36
2023-02-26T14:11:39.512Z,5.38
2023-02-26T14:14:19.049Z,5.40
2023-02-26T14:16:51.123Z,5.45
2023-02-26T14:19:29.614Z,5.49
2023-02-26T14:21:59.046Z,5.55
2023-02-26T14:24:36.902Z,5.54
2023-02-26T14:27:35.345Z,5.44
2023-02-26T14:30:18.142Z,5.42
2023-02-26T14:32:50.447Z,5.38
2023-02-26T14:35:20.764Z,5.32
2023-02-26T14:37:58.259Z,5.27
2023-02-26T14:40:26.608Z,5.21
2023-02-26T14:42:58.949Z,5.26
2023-02-26T14:45:32.508Z,5.28
2023-02-26T14:48:02.342Z,5.39
2023-02-26T14:50:39.038Z,5.45
2023-02-26T14:53:44.587Z,5.44
2023-02-26T14:56:19.575Z,5.37
2023-02-26T14:59:00.403Z,5.32
2023-02-26T15:01:50.060Z,5.36
2023-02-26T15:04:36.185Z,5.28
2023-02-26T15:07:27.794Z,5.21
2023-02-26T15:10:14.481Z,5.19
2023-02-26T15:12:55.708Z,5.19
2023-02-26T15:15:39.461Z,5.24
2023-02-26T15:18:27.180Z,5.13
2023-02-26T15:21:05.772Z,5.13
2023-02-26T15:23:41.786Z,5.13
2023-02-26T15:26:17.796Z,5.19
2023-02-26T15:28:46.299Z,5.10
2023-02-26T15:31:15.608Z,5.03
2023-02-26T15:33:45.007Z,5.07
2023-02-26T15:36:18.848Z,5.05
2023-02-26T15:38:48.245Z,5.01
2023-02-26T15:41:17.495Z,5.13
2023-02-26T15:43:51.024Z,5.19
2023-02-26T15:46:29.711Z,5.11
2023-02-26T15:49:03.590Z,5.13
2023-02-26T15:51:31.892Z,5.09
2023-02-26T15:54:03.277Z,5.02
2023-02-26T15:56:36.552Z,4.95
2023-02-26T15:59:08.006Z,4.91
2023-02-26T16:01:37.760Z,4.84
2023-02-26T16:04:08.953Z,4.82
2023-02-26T16:06:38.788Z,4.81
2023-02-26T16:09:09.132Z,4.81
2023-02-26T16:11:39.960Z,4.77
2023-02-26T16:14:14.777Z,4.65
2023-02-26T16:16:47.405Z,4.66
2023-02-26T16:19:16.387Z,4.55
2023-02-26T16:21:44.839Z,4.53
2023-02-26T16:24:19.019Z,4.62
2023-02-26T16:26:50.129Z,4.58
2023-02-26T16:29:20.514Z,4.55
2023-02-26T16:31:53.813Z,4.52
2023-02-26T16:34:31.792Z,4.45
2023-02-26T16:36:59.965Z,4.26
2023-02-26T16:39:32.427Z,4.31
2023-02-26T16:42:10.124Z,4.31
2023-02-26T16:44:46.381Z,4.21
2023-02-26T16:47:16.611Z,4.23
2023-02-26T16:49:45.332Z,4.29
2023-02-26T16:52:20.725Z,4.23
2023-02-26T16:54:56.420Z,4.16
2023-02-26T16:57:31.058Z,4.10
2023-02-26T17:00:04.602Z,4.10
2023-02-26T17:02:36.329Z,4.09
2023-02-26T17:05:22.554Z,4.05
2023-02-26T17:07:58.232Z,3.95
2023-02-26T17:10:33.593Z,4.01
2023-02-26T17:13:13.837Z,3.95
2023-02-26T17:15:41.995Z,3.90
2023-02-26T17:18:11.404Z,3.78
2023-02-26T17:20:40.825Z,3.82
2023-02-26T17:23:10.044Z,3.81
2023-02-26T17:25:40.703Z,3.78
2023-02-26T17:28:09.305Z,3.63
2023-02-26T17:30:38.297Z,3.57
2023-02-26T17:33:07.888Z,3.56
2023-02-26T17:35:37.075Z,3.48
2023-02-26T17:38:04.920Z,3.47
2023-02-26T17:40:36.456Z,3.43
2023-02-26T17:43:04.711Z,3.43
2023-02-26T17:45:33.543Z,3.35
2023-02-26T17:48:01.475Z,3.31
2023-02-26T17:50:37.101Z,3.34
2023-02-26T17:53:07.528Z,3.36
2023-02-26T17:55:37.371Z,3.29
2023-02-26T17:58:05.130Z,3.23
2023-02-26T18:00:34.403Z,3.16
2023-02-26T18:03:03.031Z,3.11
2023-02-26T18:05:32.865Z,3.12
2023-02-26T18:08:00.593Z,3.13
2023-02-26T18:10:29.739Z,3.14
2023-02-26T18:12:57.522Z,3.06
2023-02-26T18:15:26.236Z,3.03
2023-02-26T18:17:53.986Z,3.01
2023-02-26T18:20:23.371Z,3.05
2023-02-26T18:22:51.563Z,3.04
2023-02-26T18:25:19.857Z,2.96
2023-02-26T18:27:54.427Z,2.94
2023-02-26T18:30:25.377Z,2.90
2023-02-26T18:32:53.211Z,2.89
2023-02-26T18:35:20.998Z,2.85
2023-02-26T18:37:49.012Z,2.83
2023-02-26T18:40:19.109Z,2.78
2023-02-26T18:42:46.887Z,2.76
2023-02-26T18:45:16.380Z,2.68
2023-02-26T18:47:45.191Z,2.59
2023-02-26T18:50:14.854Z,2.55
2023-02-26T18:52:43.231Z,2.52
2023-02-26T18:55:12.125Z,2.53
2023-02-26T18:57:40.469Z,2.54
2023-02-26T19:00:10.392Z,2.56
2023-02-26T19:02:39.578Z,2.54
2023-02-26T19:05:08.943Z,2.60
2023-02-26T19:07:36.823Z,2.57
2023-02-26T19:10:05.227Z,2.53
2023-02-26T19:12:33.146Z,2.53
2023-02-26T19:15:00.986Z,2.49
2023-02-26T19:17:28.976Z,2.44
2023-02-26T19:19:58.068Z,2.37
2023-02-26T19:22:25.863Z,2.33
2023-02-26T19:24:54.761Z,2.29
2023-02-26T19:27:22.568Z,2.18
2023-02-26T19:29:50.434Z,2.11
2023-02-26T19:32:18.365Z,2.08
2023-02-26T19:34:46.309Z,2.04
2023-02-26T19:37:15.412Z,2.04
2023-02-26T19:39:43.201Z,1.99
2023-02-26T19:42:11.006Z,1.98
2023-02-26T19:44:38.800Z,1.97
2023-02-26T19:47:06.688Z,1.99
2023-02-26T19:49:35.086Z,1.96
2023-02-26T19:52:02.938Z,1.97
2023-02-26T19:54:32.249Z,1.97
2023-02-26T19:57:00.015Z,1.95
2023-02-26T19:59:28.172Z,1.96
2023-02-26T20:01:55.979Z,1.95
2023-02-26T20:04:23.749Z,1.96
2023-02-26T20:06:51.611Z,1.98
2023-02-26T20:09:20.193Z,1.98
2023-02-26T20:11:49.389Z,2.00
2023-02-26T20:14:18.550Z,2.04
2023-02-26T20:16:46.307Z,2.06
2023-02-26T20:19:14.121Z,2.08
2023-02-26T20:21:41.944Z,2.08
2023-02-26T20:24:10.072Z,2.07
2023-02-26T20:26:38.199Z,2.06
2023-02-26T20:29:07.830Z,2.06
2023-02-26T20:31:35.776Z,2.02
2023-02-26T20:34:03.795Z,2.03
2023-02-26T20:36:31.511Z,2.00
2023-02-26T20:39:02.192Z,2.01
2023-02-26T20:41:30.013Z,2.00
2023-02-26T20:43:58.813Z,2.02
2023-02-26T20:46:28.988Z,2.00
2023-02-26T20:48:56.839Z,1.96
2023-02-26T20:51:25.231Z,1.97
2023-02-26T20:53:53.434Z,1.90
2023-02-26T20:56:21.296Z,1.88
2023-02-26T20:58:50.095Z,1.93
2023-02-26T21:01:17.884Z,1.97
2023-02-26T21:03:47.096Z,1.99
2023-02-26T21:06:14.905Z,1.99
2023-02-26T21:08:43.776Z,1.97
2023-02-26T21:11:11.681Z,1.98
2023-02-26T21:13:39.652Z,1.96
2023-02-26T21:16:07.841Z,1.93
2023-02-26T21:18:35.649Z,1.92
2023-02-26T21:21:06.008Z,1.89
2023-02-26T21:23:34.075Z,1.83
2023-02-26T21:26:01.867Z,1.81
2023-02-26T21:28:29.660Z,1.80
2023-02-26T21:30:58.427Z,1.79
2023-02-26T21:33:26.308Z,1.75
2023-02-26T21:35:54.214Z,1.75
2023-02-26T21:38:23.342Z,1.72
2023-02-26T21:40:51.196Z,1.71
2023-02-26T21:43:18.930Z,1.69
2023-02-26T21:45:48.880Z,1.64
2023-02-26T21:48:16.896Z,1.62
2023-02-26T21:50:44.705Z,1.62
2023-02-26T21:53:12.432Z,1.61
2023-02-26T21:55:41.763Z,1.58
2023-02-26T21:58:09.539Z,1.58
2023-02-26T22:00:37.732Z,1.60
2023-02-26T22:03:05.498Z,1.56
2023-02-26T22:05:33.250Z,1.54
2023-02-26T22:08:01.062Z,1.54
2023-02-26T22:10:28.872Z,1.51
2023-02-26T22:12:58.293Z,1.51
2023-02-26T22:15:26.060Z,1.48
2023-02-26T22:17:53.848Z,1.49
2023-02-26T22:20:21.665Z,1.48
2023-02-26T22:22:49.401Z,1.46
2023-02-26T22:25:17.274Z,1.44
2023-02-26T22:27:45.007Z,1.43
2023-02-26T22:30:15.004Z,1.40
2023-02-26T22:32:43.849Z,1.36
2023-02-26T22:35:13.888Z,1.32
2023-02-26T22:37:42.413Z,1.31
2023-02-26T22:40:12.308Z,1.30
2023-02-26T22:42:40.412Z,1.29
2023-02-26T22:45:10.506Z,1.27
2023-02-26T22:47:39.676Z,1.28
2023-02-26T22:50:07.884Z,1.26
2023-02-26T22:52:35.722Z,1.26
2023-02-26T22:55:03.503Z,1.25
2023-02-26T22:57:31.271Z,1.24
2023-02-26T22:59:59.059Z,1.25
2023-02-26T23:02:26.949Z,1.25
2023-02-26T23:04:56.110Z,1.25
2023-02-26T23:07:23.839Z,1.23
2023-02-26T23:09:51.625Z,1.25
2023-02-26T23:12:19.365Z,1.23
2023-02-26T23:14:47.134Z,1.24
2023-02-26T23:17:15.744Z,1.20
2023-02-26T23:19:43.502Z,1.20
2023-02-26T23:22:12.658Z,1.18
2023-02-26T23:24:41.241Z,1.16
2023-02-26T23:27:09.248Z,1.16
2023-02-26T23:29:37.990Z,1.17
2023-02-26T23:32:05.927Z,1.14
2023-02-26T23:34:33.757Z,1.11
2023-02-26T23:37:01.518Z,1.13
2023-02-26T23:39:30.923Z,1.15
2023-02-26T23:41:59.580Z,1.06
2023-02-26T23:44:27.640Z,1.05
2023-02-26T23:46:55.455Z,1.07
2023-02-26T23:49:23.215Z,1.07
2023-02-26T23:51:50.968Z,1.11
2023-02-26T23:54:18.782Z,1.09
2023-02-26T23:56:47.978Z,1.10
2023-02-26T23:59:17.853Z,1.13
